createdAt,value
2023-01-04T00:01:08.499Z,99357.50
2023-01-04T00:04:11.769Z,99359.81
2023-01-04T00:07:15.078Z,99354.78
2023-01-04T00:10:18.071Z,99349.72
2023-01-04T00:13:20.739Z,99339.75
2023-01-04T00:16:25.353Z,99348.59
2023-01-04T00:19:28.115Z,99351.03
2023-01-04T00:22:34.919Z,99357.50
2023-01-04T00:25:41.163Z,99353.66
2023-01-04T00:28:50.053Z,99364.53
2023-01-04T00:31:56.620Z,99350.22
2023-01-04T00:35:00.123Z,99351.16
2023-01-04T00:38:02.952Z,99352.91
2023-01-04T00:41:06.620Z,99346.00
2023-01-04T00:44:10.144Z,99352.03
2023-01-04T00:47:13.093Z,99354.69
2023-01-04T00:50:16.055Z,99357.63
2023-01-04T00:53:19.369Z,99362.97
2023-01-04T00:56:22.355Z,99365.91
2023-01-04T00:59:25.207Z,99365.13
2023-01-04T01:02:28.363Z,99367.19
2023-01-04T01:05:33.603Z,99366.41
2023-01-04T01:08:36.309Z,99366.41
2023-01-04T01:11:40.364Z,99367.31
2023-01-04T01:14:43.175Z,99366.41
2023-01-04T01:17:45.704Z,99360.44
2023-01-04T01:20:48.317Z,99357.91
2023-01-04T01:23:51.760Z,99355.25
2023-01-04T01:26:54.977Z,99363.94
2023-01-04T01:29:58.074Z,99354.41
2023-01-04T01:33:00.786Z,99366.34
2023-01-04T01:36:04.570Z,99356.94
2023-01-04T01:39:07.221Z,99351.44
2023-01-04T01:42:18.995Z,99351.31
2023-01-04T01:45:34.749Z,99354.50
2023-01-04T01:48:37.817Z,99350.38
2023-01-04T01:51:41.474Z,99347.91
2023-01-04T01:54:52.412Z,99353.53
2023-01-04T01:57:55.820Z,99349.06
2023-01-04T02:00:58.842Z,99347.94
2023-01-04T02:04:02.365Z,99354.25
2023-01-04T02:07:05.969Z,99347.22
2023-01-04T02:10:09.126Z,99349.81
2023-01-04T02:13:16.026Z,99345.81
2023-01-04T02:16:22.479Z,99344.34
2023-01-04T02:20:02.927Z,99341.75
2023-01-04T02:23:24.298Z,99334.59
2023-01-04T02:26:35.691Z,99332.44
2023-01-04T02:29:50.333Z,99329.41
2023-01-04T02:33:05.697Z,99328.56
2023-01-04T02:36:16.910Z,99336.41
2023-01-04T02:39:35.204Z,99327.84
2023-01-04T02:43:18.570Z,99329.38
2023-01-04T02:46:30.026Z,99322.31
2023-01-04T02:49:51.297Z,99317.88
2023-01-04T02:52:54.003Z,99326.34
2023-01-04T02:56:35.861Z,99331.84
2023-01-04T02:59:41.558Z,99323.28
2023-01-04T03:03:30.879Z,99323.09
2023-01-04T03:06:42.427Z,99323.94
2023-01-04T03:09:48.037Z,99322.09
2023-01-04T03:13:04.287Z,99321.25
2023-01-04T03:16:12.567Z,99328.34
2023-01-04T03:19:36.763Z,99326.81
2023-01-04T03:23:05.433Z,99326.31
2023-01-04T03:26:52.773Z,99322.81
2023-01-04T03:30:21.208Z,99324.59
2023-01-04T03:33:43.180Z,99306.13
2023-01-04T03:37:19.642Z,99315.09
2023-01-04T03:40:46.848Z,99307.75
2023-01-04T03:44:23.426Z,99306.72
2023-01-04T03:48:04.600Z,99308.19
2023-01-04T03:51:17.327Z,99312.09
2023-01-04T03:54:28.027Z,99308.59
2023-01-04T03:57:31.050Z,99308.47
2023-01-04T04:00:34.764Z,99304.44
2023-01-04T04:03:56.035Z,99306.13
2023-01-04T04:07:17.563Z,99306.56
2023-01-04T04:10:20.249Z,99312.56
2023-01-04T04:13:23.340Z,99311.91
2023-01-04T04:16:26.640Z,99302.59
2023-01-04T04:19:29.328Z,99291.75
2023-01-04T04:22:31.929Z,99303.72
2023-01-04T04:25:34.692Z,99304.13
2023-01-04T04:28:37.934Z,99299.88
2023-01-04T04:31:40.757Z,99297.31
2023-01-04T04:34:43.465Z,99289.28
2023-01-04T04:37:46.007Z,99290.22
2023-01-04T04:41:08.253Z,99300.84
2023-01-04T04:44:13.807Z,99287.44
2023-01-04T04:47:17.100Z,99292.63
2023-01-04T04:50:22.120Z,99295.09
2023-01-04T04:53:24.874Z,99304.63
2023-01-04T04:56:27.577Z,99305.34
2023-01-04T04:59:30.810Z,99309.06
2023-01-04T05:02:33.416Z,99300.16
2023-01-04T05:05:36.056Z,99286.22
2023-01-04T05:08:38.698Z,99300.19
2023-01-04T05:12:00.295Z,99311.16
2023-01-04T05:15:03.368Z,99310.13
2023-01-04T05:18:07.318Z,99309.06
2023-01-04T05:21:10.012Z,99318.00
2023-01-04T05:24:13.123Z,99304.13
2023-01-04T05:27:15.939Z,99298.31
2023-01-04T05:30:37.520Z,99300.72
2023-01-04T05:33:40.248Z,99298.41
2023-01-04T05:36:42.878Z,99297.50
2023-01-04T05:39:45.432Z,99299.50
2023-01-04T05:42:48.503Z,99290.56
2023-01-04T05:45:56.035Z,99280.66
2023-01-04T05:48:58.811Z,99285.44
2023-01-04T05:52:02.692Z,99286.56
2023-01-04T05:55:05.849Z,99281.53
2023-01-04T05:58:09.135Z,99283.75
2023-01-04T06:01:12.858Z,99277.78
2023-01-04T06:04:15.621Z,99280.19
2023-01-04T06:07:18.528Z,99268.81
2023-01-04T06:10:21.120Z,99268.81
2023-01-04T06:13:23.735Z,99271.47
2023-01-04T06:16:26.392Z,99268.94
2023-01-04T06:19:29.237Z,99268.59
2023-01-04T06:22:33.084Z,99268.31
2023-01-04T06:25:35.710Z,99272.56
2023-01-04T06:28:41.140Z,99278.28
2023-01-04T06:31:44.224Z,99281.13
2023-01-04T06:34:47.014Z,99272.16
2023-01-04T06:37:49.680Z,99269.91
2023-01-04T06:40:52.697Z,99273.69
2023-01-04T06:43:55.433Z,99270.91
2023-01-04T06:46:58.021Z,99266.56
2023-01-04T06:50:00.977Z,99261.31
2023-01-04T06:53:03.713Z,99269.03
2023-01-04T06:56:08.357Z,99271.44
2023-01-04T06:59:11.090Z,99254.00
2023-01-04T07:02:17.384Z,99270.91
2023-01-04T07:05:20.268Z,99270.06
2023-01-04T07:08:23.542Z,99269.81
2023-01-04T07:11:26.265Z,99286.81
2023-01-04T07:14:29.244Z,99287.09
2023-01-04T07:17:31.889Z,99277.16
2023-01-04T07:20:34.583Z,99285.69
2023-01-04T07:23:37.341Z,99281.50
2023-01-04T07:26:40.150Z,99286.34
2023-01-04T07:29:44.543Z,99290.94
2023-01-04T07:32:47.360Z,99296.84
2023-01-04T07:35:50.117Z,99285.41
2023-01-04T07:38:52.798Z,99300.53
2023-01-04T07:41:55.665Z,99294.78
2023-01-04T07:45:00.293Z,99292.78
2023-01-04T07:48:03.345Z,99294.97
2023-01-04T07:51:06.038Z,99305.56
2023-01-04T07:54:10.428Z,99307.25
2023-01-04T07:57:13.354Z,99301.00
2023-01-04T08:00:16.537Z,99302.94
2023-01-04T08:03:19.639Z,99300.56
2023-01-04T08:06:22.523Z,99316.41
2023-01-04T08:09:25.663Z,99301.91
2023-01-04T08:12:28.519Z,99306.50
2023-01-04T08:15:31.589Z,99290.22
2023-01-04T08:18:34.861Z,99304.38
2023-01-04T08:21:38.056Z,99297.38
2023-01-04T08:24:40.778Z,99304.56
2023-01-04T08:27:43.623Z,99295.13
2023-01-04T08:30:46.665Z,99303.41
2023-01-04T08:33:50.429Z,99295.75
2023-01-04T08:36:54.412Z,99301.91
2023-01-04T08:39:57.076Z,99296.47
2023-01-04T08:43:00.146Z,99294.63
2023-01-04T08:46:04.498Z,99295.78
2023-01-04T08:49:07.928Z,99289.13
2023-01-04T08:52:11.991Z,99284.47
2023-01-04T08:55:21.527Z,99288.38
2023-01-04T08:58:26.007Z,99283.47
2023-01-04T09:01:29.286Z,99284.88
2023-01-04T09:04:32.194Z,99281.78
2023-01-04T09:07:35.076Z,99286.69
2023-01-04T09:10:40.922Z,99284.47
2023-01-04T09:13:44.652Z,99275.75
2023-01-04T09:16:47.669Z,99278.78
2023-01-04T09:19:50.889Z,99277.94
2023-01-04T09:22:53.653Z,99284.50
2023-01-04T09:25:57.064Z,99275.81
2023-01-04T09:29:03.835Z,99266.50
2023-01-04T09:32:10.249Z,99258.13
2023-01-04T09:35:17.847Z,99257.81
2023-01-04T09:38:20.746Z,99251.84
2023-01-04T09:41:28.507Z,99252.38
2023-01-04T09:47:59.970Z,99244.06
2023-01-04T09:51:07.623Z,99236.25
2023-01-04T09:54:17.409Z,99229.53
2023-01-04T09:57:27.728Z,99234.31
2023-01-04T10:00:43.417Z,99227.19
2023-01-04T10:04:21.541Z,99224.28
2023-01-04T10:07:29.477Z,99204.44
2023-01-04T10:10:55.483Z,99212.00
2023-01-04T10:14:35.471Z,99206.59
2023-01-04T10:21:38.837Z,99204.66
2023-01-04T10:24:48.858Z,99198.34
2023-01-04T10:28:03.978Z,99182.63
2023-01-04T10:31:40.756Z,99176.19
2023-01-04T10:34:46.203Z,99168.47
2023-01-04T10:37:52.153Z,99171.91
2023-01-04T10:40:58.138Z,99162.59
2023-01-04T10:44:14.511Z,99169.38
2023-01-04T10:47:33.285Z,99171.69
2023-01-04T10:50:54.000Z,99168.03
2023-01-04T10:53:58.544Z,99162.59
2023-01-04T10:57:08.498Z,99152.75
2023-01-04T11:00:20.301Z,99149.25
2023-01-04T11:03:52.171Z,99127.47
2023-01-04T11:07:09.116Z,99132.16
2023-01-04T11:10:23.547Z,99128.97
2023-01-04T11:13:26.877Z,99131.09
2023-01-04T11:16:30.038Z,99116.94
2023-01-04T11:19:33.570Z,99115.53
2023-01-04T11:22:54.443Z,99111.88
2023-01-04T11:26:00.022Z,99110.91
2023-01-04T11:29:07.773Z,99109.28
2023-01-04T11:32:23.183Z,99107.44
2023-01-04T11:35:42.480Z,99099.97
2023-01-04T11:38:55.303Z,99090.31
2023-01-04T11:42:03.191Z,99082.72
2023-01-04T11:45:07.069Z,99082.50
2023-01-04T11:48:15.266Z,99083.44
2023-01-04T11:51:32.128Z,99079.53
2023-01-04T11:54:34.906Z,99073.84
2023-01-04T11:57:37.976Z,99069.66
2023-01-04T12:00:58.330Z,99062.06
2023-01-04T12:04:01.333Z,99059.69
2023-01-04T12:07:10.148Z,99054.41
2023-01-04T12:10:27.512Z,99047.72
2023-01-04T12:13:32.249Z,99042.59
2023-01-04T12:16:41.140Z,99043.16
2023-01-04T12:19:45.037Z,99034.63
2023-01-04T12:22:48.035Z,99032.81
2023-01-04T12:25:51.754Z,99031.53
2023-01-04T12:29:23.862Z,99021.22
2023-01-04T12:32:26.753Z,99015.09
2023-01-04T12:36:08.656Z,98995.34
2023-01-04T12:39:14.528Z,98996.22
2023-01-04T12:42:24.795Z,98985.41
2023-01-04T12:45:27.844Z,98974.47
2023-01-04T12:48:49.122Z,98970.09
2023-01-04T12:52:31.978Z,98969.72
2023-01-04T12:55:35.180Z,98958.78
2023-01-04T12:59:15.223Z,98962.22
2023-01-04T13:02:20.554Z,98956.59
2023-01-04T13:08:47.881Z,98948.03
2023-01-04T13:11:53.513Z,98947.38
2023-01-04T13:15:06.374Z,98943.66
2023-01-04T13:18:27.018Z,98945.16
2023-01-04T13:21:40.142Z,98936.41
2023-01-04T13:24:44.159Z,98931.94
2023-01-04T13:28:01.530Z,98915.84
2023-01-04T13:31:04.605Z,98905.53
2023-01-04T13:34:16.944Z,98892.69
2023-01-04T13:37:35.287Z,98899.19
2023-01-04T13:40:48.855Z,98894.94
2023-01-04T13:44:12.351Z,98905.53
2023-01-04T13:47:15.777Z,98894.41
2023-01-04T13:50:40.458Z,98895.16
2023-01-04T13:53:52.444Z,98901.22
2023-01-04T13:57:08.959Z,98892.81
2023-01-04T14:00:14.357Z,98886.38
2023-01-04T14:03:40.485Z,98885.94
2023-01-04T14:06:49.235Z,98883.41
2023-01-04T14:09:55.314Z,98877.94
2023-01-04T14:12:58.320Z,98881.09
2023-01-04T14:16:13.417Z,98868.84
2023-01-04T14:19:35.260Z,98868.84
2023-01-04T14:22:45.798Z,98870.25
2023-01-04T14:25:56.842Z,98865.50
2023-01-04T14:29:00.025Z,98861.59
2023-01-04T14:32:03.749Z,98853.50
2023-01-04T14:35:12.074Z,98857.53
2023-01-04T14:38:18.394Z,98860.88
2023-01-04T14:41:27.752Z,98859.91
2023-01-04T14:44:31.801Z,98854.72
2023-01-04T14:47:35.847Z,98863.56
2023-01-04T14:50:38.512Z,98850.66
2023-01-04T14:53:42.525Z,98851.19
2023-01-04T14:56:45.297Z,98844.69
2023-01-04T14:59:48.812Z,98845.81
2023-01-04T15:02:52.619Z,98836.78
2023-01-04T15:05:55.823Z,98844.28
2023-01-04T15:08:58.816Z,98846.53
2023-01-04T15:12:01.523Z,98843.72
2023-01-04T15:15:04.937Z,98842.41
2023-01-04T15:18:08.211Z,98834.25
2023-01-04T15:21:12.084Z,98832.22
2023-01-04T15:24:14.885Z,98824.78
2023-01-04T15:27:18.015Z,98820.19
2023-01-04T15:30:20.957Z,98823.50
2023-01-04T15:33:24.023Z,98812.63
2023-01-04T15:36:27.099Z,98823.97
2023-01-04T15:39:29.809Z,98816.78
2023-01-04T15:42:51.582Z,98812.50
2023-01-04T15:45:54.381Z,98816.34
2023-01-04T15:48:57.654Z,98806.19
2023-01-04T15:52:00.966Z,98808.25
2023-01-04T15:55:04.302Z,98797.31
2023-01-04T15:58:07.696Z,98798.25
2023-01-04T16:01:13.035Z,98800.41
2023-01-04T16:04:16.654Z,98796.22
2023-01-04T16:07:20.171Z,98793.53
2023-01-04T16:10:23.269Z,98788.97
2023-01-04T16:13:26.597Z,98779.13
2023-01-04T16:16:29.814Z,98774.84
2023-01-04T16:19:34.720Z,98781.16
2023-01-04T16:22:37.771Z,98786.19
2023-01-04T16:25:40.799Z,98775.13
2023-01-04T16:28:43.875Z,98767.06
2023-01-04T16:31:47.202Z,98757.00
2023-01-04T16:34:51.549Z,98755.63
2023-01-04T16:37:54.932Z,98760.38
2023-01-04T16:41:00.167Z,98751.25
2023-01-04T16:44:05.666Z,98753.22
2023-01-04T16:47:08.691Z,98738.28
2023-01-04T16:50:12.987Z,98743.66
2023-01-04T16:53:15.930Z,98737.34
2023-01-04T16:56:20.835Z,98743.47
2023-01-04T16:59:24.021Z,98721.03
2023-01-04T17:02:27.012Z,98716.66
2023-01-04T17:05:29.814Z,98724.16
2023-01-04T17:08:32.660Z,98716.19
2023-01-04T17:12:19.265Z,98706.25
2023-01-04T17:15:40.673Z,98706.63
2023-01-04T17:18:24.037Z,98693.16
2023-01-04T17:21:34.188Z,98697.06
2023-01-04T17:24:38.762Z,98694.84
2023-01-04T17:27:41.741Z,98658.66
2023-01-04T17:30:45.341Z,98645.75
2023-01-04T17:33:49.234Z,98682.97
2023-01-04T17:36:52.151Z,98695.56
2023-01-04T17:39:55.499Z,98685.00
2023-01-04T17:42:59.907Z,98670.34
2023-01-04T17:46:05.084Z,98658.47
2023-01-04T17:49:22.251Z,98652.16
2023-01-04T17:52:30.923Z,98641.03
2023-01-04T17:55:34.493Z,98655.03
2023-01-04T17:58:37.739Z,98635.78
2023-01-04T18:01:40.649Z,98623.56
2023-01-04T18:04:43.465Z,98617.72
2023-01-04T18:07:46.230Z,98613.34
2023-01-04T18:11:06.983Z,98621.69
2023-01-04T18:14:14.617Z,98629.84
2023-01-04T18:17:17.835Z,98601.09
2023-01-04T18:20:24.897Z,98599.78
2023-01-04T18:23:29.407Z,98592.81
2023-01-04T18:26:41.667Z,98584.75
2023-01-04T18:29:56.602Z,98570.34
2023-01-04T18:32:59.553Z,98582.28
2023-01-04T18:36:04.189Z,98571.25
2023-01-04T18:39:06.951Z,98571.63
2023-01-04T18:42:09.923Z,98571.13
2023-01-04T18:45:13.226Z,98572.81
2023-01-04T18:48:16.211Z,98556.31
2023-01-04T18:51:19.398Z,98542.53
2023-01-04T18:54:22.214Z,98548.56
2023-01-04T18:57:25.560Z,98554.13
2023-01-04T19:00:30.445Z,98533.06
2023-01-04T19:03:37.155Z,98531.91
2023-01-04T19:06:41.031Z,98522.25
2023-01-04T19:09:44.624Z,98520.16
2023-01-04T19:12:48.226Z,98531.44
2023-01-04T19:15:51.194Z,98533.16
2023-01-04T19:18:54.163Z,98521.88
2023-01-04T19:21:56.950Z,98499.13
2023-01-04T19:24:59.957Z,98511.88
2023-01-04T19:28:04.534Z,98502.41
2023-01-04T19:31:08.843Z,98500.88
2023-01-04T19:34:13.004Z,98508.16
2023-01-04T19:37:16.255Z,98483.28
2023-01-04T19:40:19.482Z,98508.88
2023-01-04T19:43:22.347Z,98481.09
2023-01-04T19:46:25.593Z,98492.22
2023-01-04T19:49:29.011Z,98492.88
2023-01-04T19:52:35.118Z,98462.47
2023-01-04T19:55:41.563Z,98481.00
2023-01-04T19:58:45.140Z,98464.72
2023-01-04T20:01:48.018Z,98459.16
2023-01-04T20:04:51.069Z,98463.34
2023-01-04T20:07:53.901Z,98454.78
2023-01-04T20:10:58.195Z,98464.38
2023-01-04T20:14:01.272Z,98462.19
2023-01-04T20:17:04.540Z,98446.91
2023-01-04T20:20:07.958Z,98458.38
2023-01-04T20:23:11.478Z,98461.69
2023-01-04T20:26:16.526Z,98444.84
2023-01-04T20:29:19.462Z,98463.88
2023-01-04T20:32:22.623Z,98456.91
2023-01-04T20:35:25.431Z,98437.78
2023-01-04T20:38:28.272Z,98441.91
2023-01-04T20:41:32.833Z,98432.03
2023-01-04T20:44:36.213Z,98412.78
2023-01-04T20:47:39.115Z,98411.34
2023-01-04T20:50:42.345Z,98406.13
2023-01-04T20:53:45.775Z,98402.16
2023-01-04T20:56:48.727Z,98394.16
2023-01-04T20:59:51.825Z,98396.66
2023-01-04T21:02:54.844Z,98387.19
2023-01-04T21:06:01.458Z,98394.66
2023-01-04T21:09:04.745Z,98391.56
2023-01-04T21:12:07.752Z,98392.38
2023-01-04T21:15:10.869Z,98394.44
2023-01-04T21:18:13.743Z,98391.13
2023-01-04T21:21:18.141Z,98385.25
2023-01-04T21:24:21.350Z,98387.75
2023-01-04T21:27:24.073Z,98368.38
2023-01-04T21:30:27.524Z,98380.44
2023-01-04T21:33:31.022Z,98350.31
2023-01-04T21:36:33.828Z,98381.72
2023-01-04T21:39:36.583Z,98366.72
2023-01-04T21:42:39.453Z,98369.06
2023-01-04T21:45:42.128Z,98372.03
2023-01-04T21:48:45.662Z,98359.72
2023-01-04T21:51:48.462Z,98364.69
2023-01-04T21:54:51.248Z,98361.19
2023-01-04T21:57:54.154Z,98369.44
2023-01-04T22:00:57.410Z,98359.63
2023-01-04T22:04:00.766Z,98356.53
2023-01-04T22:07:03.698Z,98331.31
2023-01-04T22:10:06.989Z,98330.91
2023-01-04T22:13:10.059Z,98336.56
2023-01-04T22:16:14.637Z,98315.91
2023-01-04T22:19:17.416Z,98316.97
2023-01-04T22:22:20.448Z,98312.56
2023-01-04T22:25:23.073Z,98316.09
2023-01-04T22:28:29.475Z,98315.72
2023-01-04T22:31:35.959Z,98302.66
2023-01-04T22:34:38.650Z,98311.34
2023-01-04T22:37:41.203Z,98297.94
2023-01-04T22:40:43.743Z,98269.78
2023-01-04T22:43:46.995Z,98272.78
2023-01-04T22:46:49.930Z,98282.06
2023-01-04T22:49:52.585Z,98276.41
2023-01-04T22:52:55.371Z,98275.97
2023-01-04T22:56:18.221Z,98265.16
2023-01-04T22:59:20.772Z,98274.47
2023-01-04T23:02:23.275Z,98246.66
2023-01-04T23:05:25.839Z,98246.19
2023-01-04T23:08:28.496Z,98238.19
2023-01-04T23:11:32.775Z,98237.59
2023-01-04T23:14:35.582Z,98244.84
2023-01-04T23:17:38.419Z,98240.81
2023-01-04T23:20:41.068Z,98239.63
2023-01-04T23:23:44.423Z,98212.84
2023-01-04T23:26:47.559Z,98217.13
2023-01-04T23:29:50.107Z,98219.59
2023-01-04T23:32:52.664Z,98215.94
2023-01-04T23:35:55.310Z,98195.13
2023-01-04T23:38:59.987Z,98200.09
2023-01-04T23:42:02.719Z,98198.34
2023-01-04T23:45:06.072Z,98188.81
2023-01-04T23:48:08.640Z,98193.78
2023-01-04T23:51:15.304Z,98186.31
2023-01-04T23:54:18.514Z,98189.53
2023-01-04T23:57:21.119Z,98192.00
